Tallahassee, Florida
Current Conditions -  °F | °C
As of 4:53 PM on Friday 24 Oct 2014 (Local Time) from KTLH Reporting Station
Few Clouds Few Clouds  
Wind Chill: 26°   Ceiling: Unl
Heat Index: 26°   Visibility: 10mi
Dew Point:   Wind: 6mph
Humidity: 30%   Direction: 30°NNE
Pressure: 29.96"   Gusts: NA
Location:  30.44°N, 84.28°W
Report Text: KTLH 242053Z 03005KT 10SM FEW250 26/07 A2996 RMK AO2 SLP144 T02610072 56017 $
Loading
Personal Weather Stations






























Interactive Weather Map
Tropical Storm Tracking
New forecast layout! Learn more

10-Day Weather Forecast

Advertisements
Track Severe Weather on mobile